Weather History for Mosby, MO

Change the Weather History Date:

Monday, November 26, 2012

  Actual Average (KMKC) Record (KMKC)
Temperature  
Mean Temperature 32 °F -  
Max Temperature 41 °F 49 °F 70 °F (1998)
Min Temperature 23 °F 33 °F 15 °F (1996)
Degree Days  
Heating Degree Days 33    
Moisture  
Dew Point 26 °F    
Average Humidity 76    
Maximum Humidity 100    
Minimum Humidity 56    
Precipitation  
Precipitation 0.00 in - - ()
Sea Level Pressure  
Sea Level Pressure 30.28 in    
Wind  
Wind Speed 7 mph ()    
Max Wind Speed 23 mph    
Max Gust Speed 26 mph    
Visibility 9.8 miles    
Events Snow    
Averages and records for this station are not official NWS values.
T = Trace of Precipitation, MM = Missing Value Source: Averaged Metar Reports

Daily Weather History Graph

Daily Weather History Graph

Search for Another Location

Airport:

Trip Planner

Search our weather history database for the weather conditions in past years. The results will help you decide how hot, cold, wet, or windy it might be!

Date:

Astronomy

Nov. 26, 2012 Rise Set
Actual Time 7:13 AM CST 4:55 PM CST
Civil Twilight 6:44 AM CST 5:25 PM CST
Nautical Twilight 6:10 AM CST 5:58 PM CST
Astronomical Twilight 5:38 AM CST 6:30 PM CST
Moon 3:48 PM CST (11/26) 5:24 AM CST (11/26)
Length of Visible Light 10h 41m
Length of Day
9h 42m
Waxing Gibbous, 97% of the Moon is Illuminated
Nov 26
Waxing Gibbous
Nov 28
Full
Dec 6
Last Quarter
Dec 13
New
Dec 19
First Quarter

Hourly Weather History & Observations

Time (CST) Temp. Windchill Dew Point Humidity Pressure Visibility Wind Dir Wind Speed Gust Speed Precip Events Conditions
12:15 AM 33.8 °F 27.7 °F 28.4 °F 81% 30.05 in 10.0 mi NNE 6.9 mph - N/A   Clear
12:35 AM 33.8 °F 30.8 °F 28.4 °F 81% 30.07 in 10.0 mi NE 3.5 mph - N/A   Clear
12:55 AM 33.8 °F - 28.4 °F 81% 30.07 in 10.0 mi Calm Calm - N/A   Clear
1:15 AM 33.8 °F - 28.4 °F 81% 30.08 in 10.0 mi Calm Calm - N/A   Clear
1:35 AM 33.8 °F 29.6 °F 28.4 °F 81% 30.09 in 10.0 mi NE 4.6 mph - N/A   Clear
2:15 AM 32.0 °F 27.5 °F 28.4 °F 87% 30.10 in 10.0 mi East 4.6 mph - N/A   Clear
2:35 AM 32.0 °F 28.7 °F 26.6 °F 80% 30.10 in 10.0 mi NE 3.5 mph - N/A   Clear
2:55 AM 32.0 °F 27.5 °F 26.6 °F 80% 30.12 in 10.0 mi NNE 4.6 mph - N/A   Clear
3:15 AM 32.0 °F 28.7 °F 26.6 °F 80% 30.12 in 10.0 mi North 3.5 mph - N/A   Clear
3:35 AM 32.0 °F 25.6 °F 26.6 °F 80% 30.12 in 10.0 mi North 6.9 mph - N/A   Clear
3:55 AM 32.0 °F 26.4 °F 26.6 °F 80% 30.12 in 10.0 mi NNE 5.8 mph - N/A   Clear
4:15 AM 32.0 °F 26.4 °F 26.6 °F 80% 30.12 in 10.0 mi NNE 5.8 mph - N/A   Clear
4:35 AM 32.0 °F 26.4 °F 26.6 °F 80% 30.13 in 10.0 mi NNE 5.8 mph - N/A   Clear
4:55 AM 32.0 °F 26.4 °F 26.6 °F 80% 30.14 in 10.0 mi NNE 5.8 mph - N/A   Clear
5:15 AM 32.0 °F 24.8 °F 26.6 °F 80% 30.14 in 10.0 mi NE 8.1 mph - N/A   Clear
5:35 AM 32.0 °F 24.8 °F 26.6 °F 80% 30.15 in 10.0 mi NE 8.1 mph - N/A   Clear
5:55 AM 32.0 °F 26.4 °F 26.6 °F 80% 30.15 in 10.0 mi NE 5.8 mph - N/A   Clear
6:15 AM 32.0 °F 26.4 °F 26.6 °F 80% 30.15 in 10.0 mi NE 5.8 mph - N/A   Clear
6:35 AM 32.0 °F 26.4 °F 26.6 °F 80% 30.17 in 10.0 mi NNE 5.8 mph - N/A   Clear
6:55 AM 32.0 °F 27.5 °F 26.6 °F 80% 30.17 in 10.0 mi NNE 4.6 mph - N/A   Clear
7:15 AM 30.2 °F 24.3 °F 26.6 °F 86% 30.19 in 10.0 mi North 5.8 mph - N/A   Clear
7:35 AM 30.2 °F 24.3 °F 26.6 °F 86% 30.19 in 10.0 mi NNE 5.8 mph - N/A   Clear
7:55 AM 32.0 °F 27.5 °F 26.6 °F 80% 30.19 in 10.0 mi NNE 4.6 mph - N/A   Clear
8:15 AM 32.0 °F 27.5 °F 26.6 °F 80% 30.21 in 10.0 mi NE 4.6 mph - N/A   Clear
8:35 AM 32.0 °F 26.4 °F 26.6 °F 80% 30.22 in 10.0 mi NNE 5.8 mph - N/A   Clear
8:55 AM 33.8 °F 27.0 °F 26.6 °F 75% 30.24 in 10.0 mi NE 8.1 mph - N/A   Clear
9:15 AM 33.8 °F 25.8 °F 26.6 °F 75% 30.25 in 10.0 mi NE 10.4 mph 18.4 mph N/A   Clear
9:35 AM 35.6 °F 27.5 °F 26.6 °F 70% 30.25 in 10.0 mi NE 11.5 mph 18.4 mph N/A   Clear
9:55 AM 37.4 °F 30.3 °F 26.6 °F 65% 30.26 in 10.0 mi NE 10.4 mph 16.1 mph N/A   Clear
10:15 AM 37.4 °F 30.3 °F 26.6 °F 65% 30.27 in 10.0 mi NE 10.4 mph - N/A   Clear
10:35 AM 37.4 °F 29.8 °F 26.6 °F 65% 30.29 in 10.0 mi North 11.5 mph - N/A   Clear
10:55 AM 37.4 °F 28.9 °F 26.6 °F 65% 30.30 in 10.0 mi North 13.8 mph - N/A   Clear
11:15 AM 37.4 °F 28.9 °F 26.6 °F 65% 30.31 in 10.0 mi North 13.8 mph - N/A   Clear
11:35 AM 37.4 °F 28.2 °F 24.8 °F 60% 30.31 in 10.0 mi North 16.1 mph 19.6 mph N/A   Clear
11:55 AM 37.4 °F 28.5 °F 24.8 °F 60% 30.31 in 10.0 mi NNE 15.0 mph - N/A   Mostly Cloudy
12:15 PM 39.2 °F 30.5 °F 26.6 °F 61% 30.31 in 10.0 mi North 16.1 mph 21.9 mph N/A   Overcast
12:35 PM 39.2 °F 29.6 °F 26.6 °F 61% 30.31 in 10.0 mi North 19.6 mph 23.0 mph N/A   Mostly Cloudy
12:55 PM 39.2 °F 29.8 °F 24.8 °F 56% 30.31 in 10.0 mi North 18.4 mph 25.3 mph N/A   Scattered Clouds
1:15 PM 41.0 °F 31.6 °F 26.6 °F 57% 30.31 in 10.0 mi North 20.7 mph - N/A   Scattered Clouds
1:35 PM 41.0 °F 31.6 °F 26.6 °F 57% 30.32 in 10.0 mi North 20.7 mph 26.5 mph N/A   Scattered Clouds
1:55 PM 37.4 °F 26.4 °F 26.6 °F 65% 30.32 in 10.0 mi North 23.0 mph 26.5 mph N/A   Scattered Clouds
2:15 PM 37.4 °F 27.8 °F 26.6 °F 65% 30.32 in 10.0 mi NNE 17.3 mph 24.2 mph N/A   Mostly Cloudy
2:35 PM 37.4 °F 27.5 °F 26.6 °F 65% 30.33 in 10.0 mi North 18.4 mph 23.0 mph N/A   Mostly Cloudy
2:55 PM 35.6 °F 27.1 °F 28.4 °F 75% 30.34 in 10.0 mi North 12.7 mph - N/A   Mostly Cloudy
3:15 PM 33.8 °F 25.8 °F 30.2 °F 87% 30.35 in 2.0 mi North 10.4 mph - N/A Snow Light Snow
3:35 PM 32.0 °F 25.6 °F 32.0 °F 100% 30.35 in 1.5 mi North 6.9 mph - N/A Snow Light Snow
3:55 PM 32.0 °F 24.2 °F 32.0 °F 100% 30.35 in 10.0 mi North 9.2 mph - N/A   Mostly Cloudy
4:15 PM 33.8 °F 27.7 °F 30.2 °F 87% 30.35 in 10.0 mi North 6.9 mph - N/A   Scattered Clouds
4:35 PM 33.8 °F 27.7 °F 30.2 °F 87% 30.35 in 10.0 mi North 6.9 mph - N/A   Unknown
4:55 PM 33.8 °F 25.8 °F 28.4 °F 81% 30.35 in 10.0 mi North 10.4 mph - N/A   Unknown
5:15 PM 33.8 °F 28.6 °F 28.4 °F 81% 30.36 in 10.0 mi North 5.8 mph - N/A   Scattered Clouds
5:35 PM 32.0 °F 27.5 °F 28.4 °F 87% 30.37 in 10.0 mi North 4.6 mph - N/A   Scattered Clouds
5:55 PM 32.0 °F 27.5 °F 26.6 °F 80% 30.38 in 10.0 mi North 4.6 mph - N/A   Unknown
6:15 PM 32.0 °F 27.5 °F 26.6 °F 80% 30.38 in 10.0 mi North 4.6 mph - N/A   Unknown
6:35 PM 32.0 °F 27.5 °F 24.8 °F 75% 30.39 in 10.0 mi North 4.6 mph - N/A   Clear
6:55 PM 32.0 °F - 24.8 °F 75% 30.40 in 10.0 mi Calm Calm - N/A   Clear
7:15 PM 30.2 °F 21.9 °F 24.8 °F 80% 30.41 in 10.0 mi North 9.2 mph - N/A   Clear
7:35 PM 30.2 °F 23.4 °F 23.0 °F 75% 30.42 in 10.0 mi North 6.9 mph - N/A   Clear
7:55 PM 30.2 °F 23.4 °F 23.0 °F 75% 30.42 in 10.0 mi North 6.9 mph - N/A   Clear
8:15 PM 30.2 °F 23.4 °F 23.0 °F 75% 30.43 in 10.0 mi North 6.9 mph - N/A   Clear
8:35 PM 28.4 °F 21.2 °F 21.2 °F 74% 30.43 in 10.0 mi North 6.9 mph - N/A   Clear
8:55 PM 28.4 °F 21.2 °F 21.2 °F 74% 30.44 in 10.0 mi North 6.9 mph - N/A   Clear
9:15 PM 28.4 °F 21.2 °F 21.2 °F 74% 30.44 in 10.0 mi North 6.9 mph - N/A   Clear
9:35 PM 26.6 °F 17.5 °F 19.4 °F 74% 30.45 in 10.0 mi North 9.2 mph - N/A   Clear
9:55 PM 26.6 °F 17.5 °F 19.4 °F 74% 30.45 in 10.0 mi North 9.2 mph - N/A   Clear
10:15 PM 26.6 °F 20.0 °F 19.4 °F 74% 30.45 in 10.0 mi North 5.8 mph - N/A   Clear
10:35 PM 24.8 °F 20.5 °F 19.4 °F 80% 30.46 in 10.0 mi NNW 3.5 mph - N/A   Clear
11:15 PM 23.0 °F 18.4 °F 17.6 °F 80% 30.47 in 10.0 mi North 3.5 mph - N/A   Clear
11:35 PM 23.0 °F 17.0 °F 15.8 °F 74% 30.47 in 10.0 mi North 4.6 mph - N/A   Clear